createdAt,value
2018-12-14T00:07:25.994Z,18.40
2018-12-14T00:12:29.180Z,18.63
2018-12-14T00:17:32.340Z,18.93
2018-12-14T00:22:35.526Z,17.93
2018-12-14T00:27:38.771Z,17.60
2018-12-14T00:32:41.921Z,18.43
2018-12-14T00:37:45.090Z,17.57
2018-12-14T00:42:48.229Z,18.03
2018-12-14T00:47:51.366Z,18.97
2018-12-14T00:52:54.503Z,17.17
2018-12-14T00:57:57.622Z,16.70
2018-12-14T01:03:00.792Z,16.47
2018-12-14T01:08:04.005Z,16.47
2018-12-14T01:13:07.121Z,17.43
2018-12-14T01:18:10.258Z,17.30
2018-12-14T01:23:13.402Z,16.93
2018-12-14T01:28:16.621Z,16.53
2018-12-14T01:33:19.725Z,17.10
2018-12-14T01:38:22.815Z,16.37
2018-12-14T01:43:26.034Z,17.40
2018-12-14T01:48:29.249Z,16.57
2018-12-14T01:53:32.454Z,16.30
2018-12-14T01:58:35.631Z,16.83
2018-12-14T02:03:38.770Z,16.33
2018-12-14T02:08:41.890Z,16.53
2018-12-14T02:13:45.033Z,16.67
2018-12-14T02:18:48.198Z,17.00
2018-12-14T02:23:51.319Z,15.97
2018-12-14T02:28:54.584Z,14.63
2018-12-14T02:33:57.704Z,16.13
2018-12-14T02:39:00.806Z,15.83
2018-12-14T02:44:04.203Z,16.73
2018-12-14T02:49:07.369Z,16.77
2018-12-14T02:54:10.476Z,16.77
2018-12-14T02:59:13.584Z,15.63
2018-12-14T03:04:16.670Z,14.93
2018-12-14T03:09:19.743Z,15.10
2018-12-14T03:14:22.884Z,17.13
2018-12-14T03:19:25.985Z,15.23
2018-12-14T03:24:29.235Z,16.63
2018-12-14T03:29:32.358Z,15.10
2018-12-14T03:34:35.548Z,16.03
2018-12-14T03:39:38.836Z,15.33
2018-12-14T03:44:42.149Z,15.23
2018-12-14T03:49:45.257Z,14.50
2018-12-14T03:54:48.380Z,15.30
2018-12-14T03:59:51.494Z,14.33
2018-12-14T04:04:54.600Z,15.07
2018-12-14T04:09:57.693Z,15.27
2018-12-14T04:15:00.804Z,13.50
2018-12-14T04:20:04.873Z,14.10
2018-12-14T04:25:08.310Z,14.53
2018-12-14T04:30:11.631Z,13.47
2018-12-14T04:35:14.770Z,14.27
2018-12-14T04:40:17.908Z,14.70
2018-12-14T04:45:21.046Z,13.83
2018-12-14T04:50:24.298Z,14.83
2018-12-14T04:55:27.429Z,13.33
2018-12-14T05:00:30.613Z,14.70
2018-12-14T05:05:33.777Z,14.23
2018-12-14T05:10:36.938Z,15.47
2018-12-14T05:15:40.070Z,14.80
2018-12-14T05:20:43.189Z,14.50
2018-12-14T05:25:46.342Z,15.43
2018-12-14T05:30:49.429Z,14.50
2018-12-14T05:35:52.557Z,13.53
2018-12-14T05:40:55.660Z,15.33
2018-12-14T05:45:58.780Z,16.37
2018-12-14T05:51:01.903Z,15.43
2018-12-14T05:56:05.073Z,14.97
2018-12-14T06:01:08.202Z,14.90
2018-12-14T06:06:11.350Z,14.47
2018-12-14T06:11:14.561Z,15.27
2018-12-14T06:16:17.708Z,14.50
2018-12-14T06:21:20.920Z,14.60
2018-12-14T06:26:24.054Z,14.40
2018-12-14T06:31:27.149Z,14.33
2018-12-14T06:36:30.244Z,14.63
2018-12-14T06:41:33.749Z,13.23
2018-12-14T06:46:36.894Z,13.60
2018-12-14T06:51:40.105Z,13.73
2018-12-14T06:56:43.247Z,14.57
2018-12-14T07:01:46.340Z,14.13
2018-12-14T07:06:49.444Z,15.47
2018-12-14T07:11:52.574Z,15.17
2018-12-14T07:16:55.681Z,16.60
2018-12-14T07:21:58.761Z,13.93
2018-12-14T07:27:02.032Z,13.93
2018-12-14T07:32:05.149Z,14.83
2018-12-14T07:37:08.266Z,15.37
2018-12-14T07:42:11.374Z,14.80
2018-12-14T07:47:14.617Z,13.13
2018-12-14T07:52:17.719Z,12.80
2018-12-14T07:57:20.850Z,15.50
2018-12-14T08:02:24.295Z,15.50
2018-12-14T08:07:27.571Z,13.87
2018-12-14T08:12:30.679Z,14.23
2018-12-14T08:17:33.805Z,15.27
2018-12-14T08:22:36.892Z,13.97
2018-12-14T08:27:40.007Z,14.47
2018-12-14T08:32:43.091Z,15.73
2018-12-14T08:37:46.224Z,15.93
2018-12-14T08:42:49.407Z,15.70
2018-12-14T08:47:52.774Z,14.90
2018-12-14T08:52:55.890Z,15.97
2018-12-14T08:57:59.001Z,16.40
2018-12-14T09:03:02.159Z,16.40
2018-12-14T09:08:05.331Z,14.77
2018-12-14T09:13:08.496Z,17.07
2018-12-14T09:18:11.632Z,17.20
2018-12-14T09:23:14.808Z,17.53
2018-12-14T09:28:17.947Z,16.97
2018-12-14T09:33:21.110Z,15.23
2018-12-14T09:38:24.332Z,17.93
2018-12-14T09:43:27.519Z,16.37
2018-12-14T09:48:30.656Z,15.33
2018-12-14T09:53:33.789Z,15.37
2018-12-14T09:58:38.024Z,16.10
2018-12-14T10:03:41.584Z,14.03
2018-12-14T10:08:44.698Z,15.13
2018-12-14T10:13:47.826Z,14.47
2018-12-14T10:18:51.497Z,13.53
2018-12-14T10:23:54.615Z,15.40
2018-12-14T10:28:58.730Z,14.03
2018-12-14T10:34:02.112Z,14.27
2018-12-14T10:39:06.411Z,15.47
2018-12-14T10:44:09.621Z,14.53
2018-12-14T10:49:12.810Z,13.07
2018-12-14T10:54:16.405Z,14.93
2018-12-14T10:59:19.563Z,15.17
2018-12-14T11:04:23.905Z,13.53
2018-12-14T11:09:27.246Z,14.50
2018-12-14T11:14:30.370Z,15.97
2018-12-14T11:19:33.532Z,15.10
2018-12-14T11:24:36.708Z,14.93
2018-12-14T11:29:40.153Z,16.27
2018-12-14T11:34:43.287Z,14.97
2018-12-14T11:39:46.444Z,14.57
2018-12-14T11:44:49.654Z,15.17
2018-12-14T11:49:52.831Z,14.13
2018-12-14T11:54:56.132Z,15.10
2018-12-14T11:59:59.301Z,15.47
2018-12-14T12:05:02.575Z,14.43
2018-12-14T12:10:08.730Z,16.67
2018-12-14T12:15:11.936Z,16.67
2018-12-14T12:20:15.315Z,15.73
2018-12-14T12:25:18.549Z,16.87
2018-12-14T12:30:21.764Z,16.40
2018-12-14T12:35:24.925Z,21.37
2018-12-14T12:40:28.080Z,16.57
2018-12-14T12:45:31.208Z,14.67
2018-12-14T12:50:34.328Z,15.93
2018-12-14T12:55:37.489Z,17.83
2018-12-14T13:00:41.519Z,18.13
2018-12-14T13:05:44.732Z,14.30
2018-12-14T13:10:47.907Z,16.57
2018-12-14T13:15:51.101Z,15.80
2018-12-14T13:20:54.385Z,16.17
2018-12-14T13:25:57.532Z,16.30
2018-12-14T13:31:00.757Z,16.33
2018-12-14T13:36:04.026Z,19.70
2018-12-14T13:41:07.247Z,19.17
2018-12-14T13:46:10.690Z,20.67
2018-12-14T13:51:13.984Z,18.40
2018-12-14T13:56:17.242Z,17.37
2018-12-14T14:01:20.482Z,17.77
2018-12-14T14:06:23.631Z,22.47
2018-12-14T14:11:26.812Z,19.90
2018-12-14T14:16:30.009Z,18.23
2018-12-14T14:21:33.266Z,16.63
2018-12-14T14:26:36.492Z,16.20
2018-12-14T14:31:39.698Z,15.50
2018-12-14T14:36:42.889Z,15.67
2018-12-14T14:41:46.490Z,14.20
2018-12-14T14:46:49.686Z,15.23
2018-12-14T14:51:53.277Z,17.23
2018-12-14T14:56:56.463Z,15.70
2018-12-14T15:01:59.586Z,16.63
2018-12-14T15:07:02.780Z,16.70
2018-12-14T15:12:06.003Z,19.93
2018-12-14T15:17:09.202Z,17.07
2018-12-14T15:22:12.402Z,19.27
2018-12-14T15:27:15.633Z,17.47
2018-12-14T15:32:19.138Z,21.23
2018-12-14T15:37:22.297Z,16.80
2018-12-14T15:42:25.415Z,17.13
2018-12-14T15:47:28.680Z,15.83
2018-12-14T15:52:31.894Z,18.00
2018-12-14T15:57:35.093Z,19.73
2018-12-14T16:02:38.232Z,17.83
2018-12-14T16:07:41.413Z,17.50
2018-12-14T16:12:44.704Z,16.63
2018-12-14T16:17:48.097Z,15.70
2018-12-14T16:22:51.405Z,17.17
2018-12-14T16:27:54.596Z,26.83
2018-12-14T16:32:57.925Z,19.07
2018-12-14T16:38:01.107Z,20.37
2018-12-14T16:43:04.345Z,22.50
2018-12-14T16:48:07.635Z,18.23
2018-12-14T16:53:10.954Z,15.83
2018-12-14T16:58:14.245Z,17.83
2018-12-14T17:03:17.463Z,15.40
2018-12-14T17:08:20.664Z,19.50
2018-12-14T17:13:23.882Z,17.13
2018-12-14T17:18:27.170Z,17.57
2018-12-14T17:23:30.409Z,18.50
2018-12-14T17:28:33.694Z,16.50
2018-12-14T17:33:36.882Z,17.03
2018-12-14T17:38:40.326Z,20.63
2018-12-14T17:43:43.546Z,17.53
2018-12-14T17:48:46.983Z,18.40
2018-12-14T17:53:50.181Z,19.70
2018-12-14T17:58:53.558Z,20.50
2018-12-14T18:03:57.122Z,16.63
2018-12-14T18:09:01.261Z,15.97
2018-12-14T18:14:04.488Z,15.47
2018-12-14T18:19:07.868Z,19.73
2018-12-14T18:24:11.081Z,18.30
2018-12-14T18:29:14.382Z,18.00
2018-12-14T18:34:17.892Z,18.70
2018-12-14T18:39:21.087Z,20.70
2018-12-14T18:44:24.358Z,16.13
2018-12-14T18:49:27.525Z,20.00
2018-12-14T18:54:30.727Z,20.50
2018-12-14T18:59:34.129Z,21.80
2018-12-14T19:04:37.306Z,18.90
2018-12-14T19:09:40.528Z,18.47
2018-12-14T19:14:43.763Z,16.13
2018-12-14T19:19:46.959Z,16.13
2018-12-14T19:24:50.173Z,15.40
2018-12-14T19:29:53.382Z,15.83
2018-12-14T19:34:56.632Z,16.03
2018-12-14T19:39:59.841Z,15.93
2018-12-14T19:45:03.441Z,15.60
2018-12-14T19:50:07.542Z,14.93
2018-12-14T19:55:10.769Z,14.20
2018-12-14T20:00:14.177Z,15.10
2018-12-14T20:05:17.374Z,16.50
2018-12-14T20:10:20.705Z,16.43
2018-12-14T20:15:23.976Z,14.77
2018-12-14T20:20:27.165Z,21.40
2018-12-14T20:25:30.451Z,12.27
2018-12-14T20:30:33.704Z,12.97
2018-12-14T20:35:36.988Z,13.77
2018-12-14T20:40:40.291Z,13.57
2018-12-14T20:45:43.560Z,13.40
2018-12-14T20:50:46.822Z,13.63
2018-12-14T20:55:50.081Z,14.37
2018-12-14T21:00:53.290Z,15.13
2018-12-14T21:05:56.799Z,16.20
2018-12-14T21:11:00.017Z,18.23
2018-12-14T21:16:03.343Z,14.93
2018-12-14T21:21:06.598Z,14.33
2018-12-14T21:26:09.890Z,13.53
2018-12-14T21:31:13.198Z,12.93
2018-12-14T21:36:16.402Z,13.23
2018-12-14T21:41:19.590Z,12.87
2018-12-14T21:46:22.793Z,15.10
2018-12-14T21:51:26.044Z,13.40
2018-12-14T21:56:29.902Z,13.93
2018-12-14T22:01:33.134Z,14.70
2018-12-14T22:06:36.346Z,15.37
2018-12-14T22:11:39.535Z,14.53
2018-12-14T22:16:43.616Z,14.40
2018-12-14T22:21:46.843Z,14.87
2018-12-14T22:26:50.029Z,13.77
2018-12-14T22:31:53.302Z,14.40
2018-12-14T22:36:56.494Z,13.37
2018-12-14T22:41:59.799Z,13.97
2018-12-14T22:47:02.985Z,14.47
2018-12-14T22:52:06.157Z,15.80
2018-12-14T22:57:09.301Z,16.07
2018-12-14T23:02:12.476Z,15.87
2018-12-14T23:07:15.689Z,14.13
2018-12-14T23:12:18.911Z,12.83
2018-12-14T23:17:22.121Z,14.40
2018-12-14T23:22:25.302Z,14.43
2018-12-14T23:27:28.463Z,14.20
2018-12-14T23:32:31.625Z,13.43
2018-12-14T23:37:34.879Z,13.63
2018-12-14T23:42:38.089Z,14.80
2018-12-14T23:47:41.268Z,15.40
2018-12-14T23:52:44.462Z,15.40
2018-12-14T23:57:47.621Z,14.57
